Decoded Metar for UKKM (GOSTOMEL in UKRAINE) (IATA:N/A) | Meteo·Mobile Aviation Weather
aviador You're here:

UKKM Decoded Metar

GOSTOMEL in UKRAINE
Report Time2018-08-16 00:30:00
UTC Time2018-08-16 00:44:58
Flight Rules vfr VFR
Wind020° at 6 kt
W.Decomp.*RWY 33: 4.2 kt HW 4.2 kt RCW
W.Rank020° ranks 21
Current wind is above 020° avg. (5.8)
Visibility9999 m
Phenomena:Vicinity showers
Clouds:N/A
Expected CloudBase > 400 ft AGL from Temp-Dew spread
CeilingNone
Temp19°C (ISA +5)
Dew Point18°C (94% RH)
QNH1017 hPa
Density Alt1,243 ft
Elevation515 ft
Report Wrong Elevation
Raw Report
UKKM 160030Z AUTO 02003MPS 9999 VCSH 19/18 Q1017=

Extra information for UKKM:More info

Metar Taf Metar & Taf Last 4 Metars F.Rules Stats Wind Profile Meteogram Temp Stats Airport Information Weather charts Add Link Nearby VenuesMetar ALERT Operation Metar Decoded Social comments